KPDK/PDK METAR and TAF weather

Enter ICAO airport designator
Station Type Date Time Source
KPDK METAR 2020/01/24 20:53 UTC NOAA

KPDK 242053Z 34005KT 9SM SCT007 BKN013 OVC018 11/09 A2992 RMK AO2 SLP138 60002 T01110094 56011


Station Type Date Time Source
KPDK Decoded METAR 2020/01/24 20:53 UTC NOAA

ATLANTA DE KALB-PEACHTREE, GA, United States (KPDK) 33-53N 084-18W 302M
Jan 24, 2020 - 03:53 PM EST / 2020.01.24 2053 UTC
Wind: from the NNW (340 degrees) at 6 MPH (5 KT):0
Visibility: 9 mile(s):0
Sky conditions: overcast
Temperature: 52.0 F (11.1 C)
Dew Point: 48.9 F (9.4 C)
Relative Humidity: 89%
Pressure (altimeter): 29.92 in. Hg (1013 hPa)
Pressure tendency: 0.03 inches (1.1 hPa) lower than three hours ago
ob: KPDK 242053Z 34005KT 9SM SCT007 BKN013 OVC018 11/09 A2992 RMK AO2 SLP138 60002 T01110094 56011
cycle: 21

Station Type Date Time Source
KPDK TAF 2020/01/24 20:12 UTC NOAA

TAF
AMD KPDK 242009Z 2420/2518 21004KT 6SM BR VCSH SCT008
TEMPO 2420/2421 BKN004
FM242200 25008KT P6SM SCT035
FM250300 28007KT P6SM SCT060
FM250900 29008KT P6SM BKN030
FM251500 30009KT P6SM SCT035

Example: see airport list